createdAt,value
2023-03-05T00:01:12.518Z,62.50
2023-03-05T00:03:39.342Z,62.50
2023-03-05T00:06:06.533Z,62.50
2023-03-05T00:08:33.283Z,62.60
2023-03-05T00:11:10.037Z,62.60
2023-03-05T00:13:37.636Z,62.70
2023-03-05T00:16:10.515Z,62.70
2023-03-05T00:18:37.944Z,62.70
2023-03-05T00:21:05.438Z,62.70
2023-03-05T00:23:32.076Z,62.80
2023-03-05T00:26:02.115Z,62.80
2023-03-05T00:28:28.710Z,62.90
2023-03-05T00:30:58.906Z,62.90
2023-03-05T00:33:25.494Z,62.90
2023-03-05T00:35:52.178Z,62.90
2023-03-05T00:38:18.847Z,62.90
2023-03-05T00:40:45.587Z,63.00
2023-03-05T00:43:12.219Z,63.00
2023-03-05T00:45:38.832Z,63.00
2023-03-05T00:48:05.685Z,63.00
2023-03-05T00:50:32.320Z,63.00
2023-03-05T00:52:58.961Z,63.00
2023-03-05T00:55:25.686Z,63.00
2023-03-05T00:57:52.321Z,62.90
2023-03-05T01:00:19.134Z,63.00
2023-03-05T01:02:45.761Z,63.00
2023-03-05T01:05:14.267Z,63.00
2023-03-05T01:07:41.148Z,63.00
2023-03-05T01:10:09.168Z,63.00
2023-03-05T01:12:35.789Z,63.10
2023-03-05T01:15:02.981Z,63.10
2023-03-05T01:17:29.654Z,63.10
2023-03-05T01:19:56.374Z,63.20
2023-03-05T01:22:23.090Z,63.30
2023-03-05T01:24:49.702Z,63.30
2023-03-05T01:27:16.310Z,63.30
2023-03-05T01:29:42.888Z,63.40
2023-03-05T01:32:09.505Z,63.40
2023-03-05T01:34:39.286Z,63.50
2023-03-05T01:37:05.919Z,63.60
2023-03-05T01:39:32.547Z,63.60
2023-03-05T01:41:59.154Z,63.60
2023-03-05T01:44:28.363Z,63.70
2023-03-05T01:46:55.284Z,63.70
2023-03-05T01:49:39.774Z,63.70
2023-03-05T01:52:19.749Z,63.80
2023-03-05T01:54:49.130Z,63.70
2023-03-05T01:57:19.557Z,63.70
2023-03-05T01:59:48.704Z,63.70
2023-03-05T02:02:16.276Z,63.70
2023-03-05T02:05:11.532Z,63.70
2023-03-05T02:07:40.111Z,63.80
2023-03-05T02:10:21.691Z,63.80
2023-03-05T02:12:49.772Z,63.90
2023-03-05T02:15:17.687Z,63.90
2023-03-05T02:17:45.403Z,64.00
2023-03-05T02:20:18.860Z,64.10
2023-03-05T02:22:45.869Z,64.20
2023-03-05T02:25:19.497Z,63.90
2023-03-05T02:28:16.749Z,64.10
2023-03-05T02:30:43.689Z,64.10
2023-03-05T02:33:10.308Z,64.00
2023-03-05T02:35:37.053Z,64.00
2023-03-05T02:38:04.007Z,64.00
2023-03-05T02:40:30.633Z,64.10
2023-03-05T02:42:57.295Z,64.00
2023-03-05T02:45:23.929Z,64.10
2023-03-05T02:47:50.526Z,64.10
2023-03-05T02:50:17.464Z,64.10
2023-03-05T02:52:44.108Z,64.10
2023-03-05T02:55:11.078Z,64.20
2023-03-05T02:57:37.884Z,64.20
2023-03-05T03:00:06.144Z,64.20
2023-03-05T03:02:32.973Z,64.30
2023-03-05T03:04:59.576Z,64.30
2023-03-05T03:07:26.362Z,64.30
2023-03-05T03:09:53.144Z,64.30
2023-03-05T03:12:19.783Z,64.30
2023-03-05T03:14:46.446Z,64.30
2023-03-05T03:17:15.562Z,64.30
2023-03-05T03:19:42.999Z,64.30
2023-03-05T03:22:11.028Z,64.30
2023-03-05T03:24:38.592Z,64.40
2023-03-05T03:27:05.328Z,64.40
2023-03-05T03:29:32.063Z,64.40
2023-03-05T03:31:59.023Z,64.30
2023-03-05T03:34:26.203Z,64.30
2023-03-05T03:36:53.171Z,64.40
2023-03-05T03:39:20.381Z,64.40
2023-03-05T03:41:51.990Z,64.50
2023-03-05T03:44:20.283Z,64.60
2023-03-05T03:46:48.465Z,64.50
2023-03-05T03:49:23.533Z,64.60
2023-03-05T03:51:51.776Z,64.70
2023-03-05T03:54:19.021Z,64.60
2023-03-05T03:56:46.086Z,64.70
2023-03-05T03:59:13.756Z,64.70
2023-03-05T04:01:40.887Z,64.70
2023-03-05T04:04:07.927Z,64.70
2023-03-05T04:06:34.922Z,64.70
2023-03-05T04:09:01.528Z,64.70
2023-03-05T04:11:28.111Z,64.70
2023-03-05T04:13:54.980Z,64.80
2023-03-05T04:16:22.235Z,64.80
2023-03-05T04:18:48.939Z,64.80
2023-03-05T04:21:15.599Z,64.80
2023-03-05T04:23:42.309Z,64.80
2023-03-05T04:26:09.068Z,64.80
2023-03-05T04:28:35.938Z,64.80
2023-03-05T04:31:03.187Z,64.90
2023-03-05T04:33:29.836Z,64.90
2023-03-05T04:35:56.704Z,64.90
2023-03-05T04:38:23.455Z,64.90
2023-03-05T04:40:50.062Z,64.90
2023-03-05T04:43:16.740Z,64.90
2023-03-05T04:45:43.931Z,64.90
2023-03-05T04:48:11.550Z,64.90
2023-03-05T04:50:38.293Z,64.90
2023-03-05T04:53:05.664Z,64.90
2023-03-05T04:55:32.314Z,64.90
2023-03-05T04:57:58.997Z,65.00
2023-03-05T05:00:25.758Z,65.00
2023-03-05T05:02:52.740Z,65.00
2023-03-05T05:05:25.840Z,65.00
2023-03-05T05:07:57.005Z,65.00
2023-03-05T05:10:25.236Z,65.10
2023-03-05T05:12:51.879Z,65.10
2023-03-05T05:15:18.734Z,65.00
2023-03-05T05:17:45.722Z,65.00
2023-03-05T05:20:15.299Z,65.10
2023-03-05T05:22:42.673Z,65.10
2023-03-05T05:25:10.666Z,65.20
2023-03-05T05:27:38.821Z,65.30
2023-03-05T05:30:06.525Z,65.30
2023-03-05T05:32:34.113Z,65.30
2023-03-05T05:35:00.847Z,65.40
2023-03-05T05:37:27.684Z,65.40
2023-03-05T05:39:54.258Z,65.40
2023-03-05T05:42:23.341Z,65.40
2023-03-05T05:44:50.246Z,65.50
2023-03-05T05:47:17.897Z,65.60
2023-03-05T05:49:44.558Z,65.60
2023-03-05T05:52:11.248Z,65.60
2023-03-05T05:54:38.791Z,65.60
2023-03-05T05:57:05.730Z,65.60
2023-03-05T05:59:32.507Z,65.70
2023-03-05T06:01:59.431Z,65.70
2023-03-05T06:04:26.209Z,65.70
2023-03-05T06:06:52.798Z,65.80
2023-03-05T06:09:19.454Z,65.80
2023-03-05T06:11:46.098Z,65.80
2023-03-05T06:14:13.487Z,65.80
2023-03-05T06:16:40.272Z,65.90
2023-03-05T06:19:06.958Z,65.80
2023-03-05T06:21:33.918Z,65.80
2023-03-05T06:24:00.595Z,65.90
2023-03-05T06:26:27.270Z,65.90
2023-03-05T06:28:54.767Z,65.90
2023-03-05T06:31:26.966Z,65.90
2023-03-05T06:34:03.564Z,65.90
2023-03-05T06:36:31.036Z,65.90
2023-03-05T06:38:58.977Z,65.80
2023-03-05T06:41:28.379Z,65.80
2023-03-05T06:43:57.403Z,65.80
2023-03-05T06:46:29.662Z,65.80
2023-03-05T06:48:58.741Z,65.80
2023-03-05T06:51:28.489Z,65.80
2023-03-05T06:53:56.424Z,65.70
2023-03-05T06:56:23.433Z,65.60
2023-03-05T06:58:51.809Z,65.60
2023-03-05T07:01:19.735Z,65.60
2023-03-05T07:03:50.082Z,65.60
2023-03-05T07:06:17.155Z,65.50
2023-03-05T07:08:44.842Z,65.40
2023-03-05T07:11:13.025Z,65.40
2023-03-05T07:13:39.817Z,65.30
2023-03-05T07:16:13.649Z,65.30
2023-03-05T07:18:40.390Z,65.30
2023-03-05T07:21:08.550Z,65.20
2023-03-05T07:23:35.848Z,65.20
2023-03-05T07:26:03.967Z,65.20
2023-03-05T07:28:31.586Z,65.10
2023-03-05T07:31:00.685Z,65.10
2023-03-05T07:33:28.070Z,65.10
2023-03-05T07:35:55.386Z,65.00
2023-03-05T07:38:22.356Z,65.00
2023-03-05T07:40:50.606Z,64.90
2023-03-05T07:43:17.377Z,64.90
2023-03-05T07:45:45.049Z,64.90
2023-03-05T07:48:17.192Z,64.90
2023-03-05T07:50:44.110Z,64.80
2023-03-05T07:53:10.734Z,64.80
2023-03-05T07:55:43.206Z,64.70
2023-03-05T07:58:10.408Z,64.70
2023-03-05T08:00:37.106Z,64.70
2023-03-05T08:03:03.962Z,64.70
2023-03-05T08:05:30.728Z,64.80
2023-03-05T08:07:57.661Z,64.80
2023-03-05T08:10:24.329Z,64.80
2023-03-05T08:12:50.915Z,64.70
2023-03-05T08:15:17.670Z,64.70
2023-03-05T08:17:44.244Z,64.70
2023-03-05T08:20:11.785Z,64.70
2023-03-05T08:22:38.902Z,64.60
2023-03-05T08:25:06.949Z,64.60
2023-03-05T08:27:33.655Z,64.60
2023-03-05T08:30:02.463Z,64.50
2023-03-05T08:32:29.629Z,64.40
2023-03-05T08:34:58.590Z,64.30
2023-03-05T08:37:25.570Z,64.20
2023-03-05T08:39:52.437Z,64.10
2023-03-05T08:42:19.108Z,64.10
2023-03-05T08:44:45.841Z,64.10
2023-03-05T08:47:13.151Z,64.10
2023-03-05T08:49:39.745Z,63.90
2023-03-05T08:52:06.402Z,63.90
2023-03-05T08:54:34.205Z,63.70
2023-03-05T08:57:01.364Z,63.60
2023-03-05T08:59:27.972Z,63.40
2023-03-05T09:01:54.621Z,63.30
2023-03-05T09:04:21.590Z,63.20
2023-03-05T09:06:48.228Z,63.00
2023-03-05T09:09:14.874Z,62.80
2023-03-05T09:11:41.447Z,62.70
2023-03-05T09:14:08.188Z,62.50
2023-03-05T09:16:36.173Z,62.40
2023-03-05T09:19:03.013Z,62.10
2023-03-05T09:21:29.722Z,61.90
2023-03-05T09:23:59.621Z,61.60
2023-03-05T09:26:26.592Z,61.40
2023-03-05T09:28:53.312Z,61.00
2023-03-05T09:31:20.238Z,60.90
2023-03-05T09:33:48.862Z,60.70
2023-03-05T09:36:28.484Z,60.50
2023-03-05T09:38:55.540Z,60.10
2023-03-05T09:41:27.023Z,60.00
2023-03-05T09:44:12.304Z,59.40
2023-03-05T09:46:50.284Z,59.00
2023-03-05T09:49:29.812Z,58.80
2023-03-05T09:52:05.391Z,58.30
2023-03-05T09:54:39.741Z,57.90
2023-03-05T09:57:19.981Z,57.50
2023-03-05T09:59:54.394Z,57.20
2023-03-05T10:02:28.380Z,57.10
2023-03-05T10:05:38.896Z,56.50
2023-03-05T10:08:06.069Z,55.90
2023-03-05T10:10:53.348Z,55.50
2023-03-05T10:13:25.034Z,53.90
2023-03-05T10:16:17.239Z,53.70
2023-03-05T10:19:13.358Z,52.90
2023-03-05T10:21:54.029Z,52.90
2023-03-05T10:24:45.910Z,53.20
2023-03-05T10:27:31.231Z,53.00
2023-03-05T10:30:07.132Z,52.60
2023-03-05T10:32:52.516Z,52.60
2023-03-05T10:35:50.598Z,52.00
2023-03-05T10:38:41.292Z,51.90
2023-03-05T10:41:21.971Z,51.70
2023-03-05T10:44:05.930Z,51.60
2023-03-05T10:46:36.522Z,50.90
2023-03-05T10:49:22.618Z,50.50
2023-03-05T10:52:03.335Z,49.50
2023-03-05T10:54:38.549Z,49.60
2023-03-05T10:57:23.507Z,49.30
2023-03-05T10:59:58.442Z,49.80
2023-03-05T11:02:25.157Z,49.50
2023-03-05T11:04:52.812Z,49.40
2023-03-05T11:07:19.347Z,49.00
2023-03-05T11:10:02.471Z,48.80
2023-03-05T11:12:36.643Z,48.60
2023-03-05T11:15:08.968Z,49.10
2023-03-05T11:17:39.223Z,49.10
2023-03-05T11:20:31.817Z,48.80
2023-03-05T11:23:23.958Z,48.70
2023-03-05T11:25:58.395Z,48.60
2023-03-05T11:28:37.714Z,48.70
2023-03-05T11:31:24.355Z,48.80
2023-03-05T11:33:58.599Z,49.00
2023-03-05T11:36:28.619Z,49.20
2023-03-05T11:38:56.922Z,49.30
2023-03-05T11:41:28.298Z,49.30
2023-03-05T11:43:56.652Z,49.00
2023-03-05T11:46:24.535Z,49.20
2023-03-05T11:48:54.434Z,49.30
2023-03-05T11:51:28.777Z,49.60
2023-03-05T11:53:59.690Z,49.80
2023-03-05T11:56:31.586Z,49.90
2023-03-05T11:59:29.456Z,50.20
2023-03-05T12:01:57.463Z,50.30
2023-03-05T12:04:24.733Z,50.60
2023-03-05T12:07:00.394Z,50.80
2023-03-05T12:09:41.034Z,50.90
2023-03-05T12:12:42.079Z,51.10
2023-03-05T12:15:17.662Z,51.20
2023-03-05T12:18:10.265Z,51.30
2023-03-05T12:20:45.362Z,51.30
2023-03-05T12:23:18.336Z,51.40
2023-03-05T12:25:57.864Z,51.50
2023-03-05T12:28:37.076Z,51.60
2023-03-05T12:31:06.491Z,51.60
2023-03-05T12:33:37.229Z,51.60
2023-03-05T12:36:22.233Z,51.60
2023-03-05T12:38:53.279Z,51.60
2023-03-05T12:41:22.932Z,51.70
2023-03-05T12:44:08.006Z,51.70
2023-03-05T12:46:39.041Z,51.80
2023-03-05T12:49:17.898Z,51.70
2023-03-05T12:51:47.090Z,51.80
2023-03-05T12:54:32.515Z,52.00
2023-03-05T12:57:05.453Z,51.80
2023-03-05T12:59:47.670Z,51.70
2023-03-05T13:02:36.262Z,51.60
2023-03-05T13:05:14.709Z,51.50
2023-03-05T13:07:41.316Z,51.50
2023-03-05T13:10:27.257Z,51.40
2023-03-05T13:12:57.257Z,51.10
2023-03-05T13:15:25.514Z,51.10
2023-03-05T13:18:03.255Z,51.40
2023-03-05T13:20:38.508Z,51.50
2023-03-05T13:23:20.567Z,51.60
2023-03-05T13:26:15.295Z,51.50
2023-03-05T13:28:45.073Z,51.40
2023-03-05T13:31:19.335Z,51.60
2023-03-05T13:33:57.462Z,51.50
2023-03-05T13:36:26.721Z,51.70
2023-03-05T13:38:54.067Z,51.70
2023-03-05T13:41:25.209Z,51.80
2023-03-05T13:44:02.704Z,51.60
2023-03-05T13:46:42.017Z,51.60
2023-03-05T13:49:25.997Z,51.60
2023-03-05T13:51:54.947Z,51.60
2023-03-05T13:54:24.466Z,51.40
2023-03-05T13:56:57.934Z,51.30
2023-03-05T13:59:25.757Z,51.10
2023-03-05T14:01:53.188Z,51.40
2023-03-05T14:04:26.202Z,51.30
2023-03-05T14:07:03.621Z,51.00
2023-03-05T14:09:43.195Z,51.20
2023-03-05T14:12:30.693Z,51.10
2023-03-05T14:14:59.385Z,50.90
2023-03-05T14:17:27.485Z,50.90
2023-03-05T14:20:07.755Z,50.80
2023-03-05T14:22:36.988Z,50.80
2023-03-05T14:25:05.602Z,51.00
2023-03-05T14:27:36.071Z,50.90
2023-03-05T14:30:04.699Z,50.90
2023-03-05T14:32:37.014Z,51.00
2023-03-05T14:35:05.565Z,50.90
2023-03-05T14:37:36.608Z,50.90
2023-03-05T14:40:13.934Z,50.80
2023-03-05T14:42:50.847Z,50.80
2023-03-05T14:45:19.466Z,50.90
2023-03-05T14:47:46.405Z,51.10
2023-03-05T14:50:19.440Z,51.10
2023-03-05T14:52:48.435Z,51.20
2023-03-05T14:55:17.149Z,51.30
2023-03-05T14:57:43.989Z,51.20
2023-03-05T15:00:28.857Z,51.30
2023-03-05T15:02:55.500Z,51.10
2023-03-05T15:05:22.441Z,51.20
2023-03-05T15:07:49.418Z,51.10
2023-03-05T15:10:22.088Z,51.20
2023-03-05T15:12:50.326Z,51.20
2023-03-05T15:15:17.856Z,51.20
2023-03-05T15:17:50.213Z,51.10
2023-03-05T15:20:20.578Z,51.20
2023-03-05T15:22:47.266Z,51.30
2023-03-05T15:25:14.890Z,51.20
2023-03-05T15:27:41.695Z,51.20
2023-03-05T15:30:34.951Z,51.20
2023-03-05T15:33:04.599Z,51.20
2023-03-05T15:35:31.887Z,51.40
2023-03-05T15:37:58.727Z,51.40
2023-03-05T15:40:27.741Z,51.50
2023-03-05T15:42:55.715Z,51.50
2023-03-05T15:45:22.741Z,51.50
2023-03-05T15:47:51.084Z,51.50
2023-03-05T15:50:19.220Z,51.60
2023-03-05T15:52:46.042Z,51.60
2023-03-05T15:55:13.306Z,51.60
2023-03-05T15:57:45.307Z,51.60
2023-03-05T16:00:14.044Z,51.60
2023-03-05T16:02:40.929Z,51.70
2023-03-05T16:05:08.406Z,51.80
2023-03-05T16:07:38.797Z,51.80
2023-03-05T16:10:06.444Z,51.90
2023-03-05T16:12:41.105Z,52.00
2023-03-05T16:15:13.359Z,52.00
2023-03-05T16:17:44.025Z,52.10
2023-03-05T16:20:12.500Z,52.20
2023-03-05T16:22:39.274Z,52.30
2023-03-05T16:25:06.628Z,52.30
2023-03-05T16:27:33.670Z,52.40
2023-03-05T16:30:00.352Z,52.40
2023-03-05T16:32:27.089Z,52.40
2023-03-05T16:34:53.775Z,52.50
2023-03-05T16:37:23.511Z,52.60
2023-03-05T16:39:50.643Z,52.70
2023-03-05T16:42:17.365Z,52.70
2023-03-05T16:44:44.690Z,52.80
2023-03-05T16:47:12.258Z,52.80
2023-03-05T16:49:39.748Z,52.80
2023-03-05T16:52:18.314Z,52.80
2023-03-05T16:54:45.698Z,52.90
2023-03-05T16:57:12.574Z,52.90
2023-03-05T16:59:39.336Z,52.90
2023-03-05T17:02:06.117Z,53.00
2023-03-05T17:04:32.965Z,53.10
2023-03-05T17:06:59.581Z,53.10
2023-03-05T17:09:26.316Z,53.10
2023-03-05T17:11:54.034Z,53.20
2023-03-05T17:14:21.177Z,53.20
2023-03-05T17:16:48.190Z,53.30
2023-03-05T17:19:15.080Z,53.30
2023-03-05T17:21:42.738Z,53.30
2023-03-05T17:24:10.306Z,53.40
2023-03-05T17:26:37.563Z,53.50
2023-03-05T17:29:05.878Z,53.60
2023-03-05T17:31:32.572Z,53.70
2023-03-05T17:33:59.360Z,53.70
2023-03-05T17:36:26.266Z,53.70
2023-03-05T17:38:53.576Z,53.80
2023-03-05T17:41:20.461Z,53.90
2023-03-05T17:43:47.272Z,54.00
2023-03-05T17:46:14.500Z,54.00
2023-03-05T17:48:41.620Z,54.00
2023-03-05T17:51:11.380Z,54.10
2023-03-05T17:53:40.132Z,54.10
2023-03-05T17:56:09.039Z,54.10
2023-03-05T17:58:36.195Z,54.10
2023-03-05T18:01:04.331Z,54.20
2023-03-05T18:03:31.132Z,54.20
2023-03-05T18:05:57.717Z,54.30
2023-03-05T18:08:24.350Z,54.40
2023-03-05T18:10:51.037Z,54.40
2023-03-05T18:13:17.653Z,54.50
2023-03-05T18:15:47.637Z,54.50
2023-03-05T18:18:15.890Z,54.60
2023-03-05T18:20:42.842Z,54.70
2023-03-05T18:23:10.121Z,54.70
2023-03-05T18:25:36.810Z,54.80
2023-03-05T18:28:06.724Z,54.80
2023-03-05T18:30:33.841Z,54.90
2023-03-05T18:33:01.059Z,55.00
2023-03-05T18:35:29.239Z,55.10
2023-03-05T18:37:56.577Z,55.20
2023-03-05T18:40:26.259Z,55.20
2023-03-05T18:42:52.988Z,55.30
2023-03-05T18:45:21.617Z,55.40
2023-03-05T18:47:53.859Z,55.50
2023-03-05T18:50:22.427Z,55.50
2023-03-05T18:52:49.250Z,55.60
2023-03-05T18:55:17.944Z,55.70
2023-03-05T18:57:44.692Z,55.70
2023-03-05T19:00:14.904Z,55.70
2023-03-05T19:02:41.571Z,55.80
2023-03-05T19:05:09.258Z,55.80
2023-03-05T19:07:37.935Z,55.80
2023-03-05T19:10:09.960Z,55.90
2023-03-05T19:12:45.385Z,56.00
2023-03-05T19:15:13.516Z,55.90
2023-03-05T19:17:40.400Z,56.00
2023-03-05T19:20:08.343Z,56.00
2023-03-05T19:22:35.047Z,56.10
2023-03-05T19:25:01.995Z,56.10
2023-03-05T19:27:28.943Z,56.10
2023-03-05T19:29:55.676Z,56.10
2023-03-05T19:32:23.542Z,56.10
2023-03-05T19:34:50.442Z,56.10
2023-03-05T19:37:18.141Z,56.20
2023-03-05T19:39:44.859Z,56.20
2023-03-05T19:42:11.605Z,56.30
2023-03-05T19:44:38.255Z,56.30
2023-03-05T19:47:05.107Z,56.30
2023-03-05T19:49:31.770Z,56.30
2023-03-05T19:51:58.395Z,56.40
2023-03-05T19:54:25.282Z,56.40
2023-03-05T19:56:54.862Z,56.40
2023-03-05T19:59:23.003Z,56.40
2023-03-05T20:01:49.787Z,56.40
2023-03-05T20:04:19.435Z,56.40
2023-03-05T20:06:46.720Z,56.50
2023-03-05T20:09:14.088Z,56.50
2023-03-05T20:11:41.275Z,56.60
2023-03-05T20:14:09.139Z,56.60
2023-03-05T20:16:37.740Z,56.60
2023-03-05T20:19:06.418Z,56.60
2023-03-05T20:21:36.495Z,56.70
2023-03-05T20:24:09.973Z,56.70
2023-03-05T20:26:37.454Z,56.80
2023-03-05T20:29:05.045Z,56.60
2023-03-05T20:31:36.902Z,56.70
2023-03-05T20:34:10.174Z,56.70
2023-03-05T20:36:37.491Z,56.80
2023-03-05T20:39:05.056Z,56.80
2023-03-05T20:41:33.030Z,56.80
2023-03-05T20:43:59.660Z,56.90
2023-03-05T20:46:28.925Z,56.90
2023-03-05T20:48:58.992Z,56.90
2023-03-05T20:51:26.970Z,56.90
2023-03-05T20:53:58.154Z,56.90
2023-03-05T20:56:27.853Z,56.90
2023-03-05T20:58:55.706Z,56.90
2023-03-05T21:01:22.669Z,56.90
2023-03-05T21:03:49.737Z,56.90
2023-03-05T21:06:16.496Z,56.90
2023-03-05T21:08:43.747Z,56.90
2023-03-05T21:11:10.964Z,56.90
2023-03-05T21:13:38.484Z,56.90
2023-03-05T21:16:10.547Z,56.90
2023-03-05T21:18:37.262Z,56.90
2023-03-05T21:21:03.952Z,56.90
2023-03-05T21:23:30.587Z,56.90
2023-03-05T21:25:57.322Z,56.80
2023-03-05T21:28:24.125Z,56.80
2023-03-05T21:30:53.606Z,56.80
2023-03-05T21:33:28.968Z,56.80
2023-03-05T21:35:57.990Z,56.80
2023-03-05T21:38:27.132Z,56.80
2023-03-05T21:40:54.062Z,56.80
2023-03-05T21:43:23.459Z,56.90
2023-03-05T21:45:53.271Z,56.80
2023-03-05T21:48:21.472Z,56.80
2023-03-05T21:50:48.376Z,56.80
2023-03-05T21:53:16.550Z,56.90
2023-03-05T21:55:53.024Z,56.90
2023-03-05T21:58:19.677Z,56.90
2023-03-05T22:00:46.327Z,56.90
2023-03-05T22:03:12.964Z,56.90
2023-03-05T22:05:42.721Z,57.00
2023-03-05T22:08:09.382Z,57.10
2023-03-05T22:10:36.134Z,57.40
2023-03-05T22:13:05.080Z,57.30
2023-03-05T22:15:31.864Z,57.10
2023-03-05T22:17:58.779Z,57.10
2023-03-05T22:20:25.631Z,57.00
2023-03-05T22:22:52.247Z,57.00
2023-03-05T22:25:18.927Z,57.00
2023-03-05T22:27:45.676Z,57.10
2023-03-05T22:30:13.380Z,57.20
2023-03-05T22:32:39.988Z,57.30
2023-03-05T22:35:09.772Z,57.40
2023-03-05T22:37:36.438Z,57.50
2023-03-05T22:40:03.924Z,57.60
2023-03-05T22:42:30.548Z,57.70
2023-03-05T22:44:58.584Z,57.70
2023-03-05T22:47:25.972Z,57.80
2023-03-05T22:49:53.094Z,57.90
2023-03-05T22:52:20.245Z,57.90
2023-03-05T22:54:46.911Z,58.00
2023-03-05T22:57:13.580Z,58.10
2023-03-05T22:59:40.310Z,58.20
2023-03-05T23:02:07.090Z,58.30
2023-03-05T23:04:49.048Z,58.40
2023-03-05T23:07:18.274Z,58.50
2023-03-05T23:09:45.387Z,58.50
2023-03-05T23:12:12.584Z,58.50
2023-03-05T23:14:39.180Z,58.60
2023-03-05T23:17:05.853Z,58.60
2023-03-05T23:19:39.526Z,58.70
2023-03-05T23:22:09.140Z,58.80
2023-03-05T23:24:36.099Z,58.80
2023-03-05T23:27:05.385Z,58.80
2023-03-05T23:29:47.059Z,58.90
2023-03-05T23:32:13.710Z,59.00
2023-03-05T23:34:40.308Z,59.00
2023-03-05T23:37:07.558Z,59.10
2023-03-05T23:39:34.171Z,59.20
2023-03-05T23:42:00.767Z,59.20
2023-03-05T23:44:27.353Z,59.30
2023-03-05T23:46:53.931Z,59.40
2023-03-05T23:49:20.568Z,59.40
2023-03-05T23:51:47.219Z,59.50
2023-03-05T23:54:13.829Z,59.60
2023-03-05T23:56:40.419Z,59.60
2023-03-05T23:59:07.102Z,59.70
